createdAt,value
2023-02-11T00:01:11.144Z,95.50
2023-02-11T00:03:38.964Z,95.30
2023-02-11T00:06:11.109Z,94.70
2023-02-11T00:08:38.806Z,94.70
2023-02-11T00:11:05.816Z,94.20
2023-02-11T00:13:32.566Z,94.90
2023-02-11T00:15:59.312Z,95.40
2023-02-11T00:18:26.171Z,95.80
2023-02-11T00:20:53.688Z,95.60
2023-02-11T00:23:20.361Z,95.30
2023-02-11T00:25:47.241Z,95.40
2023-02-11T00:28:14.169Z,95.80
2023-02-11T00:30:41.440Z,95.30
2023-02-11T00:33:08.390Z,95.60
2023-02-11T00:35:38.718Z,96.00
2023-02-11T00:38:05.536Z,96.10
2023-02-11T00:40:32.555Z,96.60
2023-02-11T00:43:01.853Z,96.90
2023-02-11T00:45:30.742Z,97.10
2023-02-11T00:47:57.584Z,97.10
2023-02-11T00:50:24.570Z,97.40
2023-02-11T00:52:51.259Z,98.10
2023-02-11T00:55:18.053Z,98.00
2023-02-11T00:57:44.878Z,98.50
2023-02-11T01:00:13.390Z,98.60
2023-02-11T01:02:40.116Z,98.90
2023-02-11T01:05:07.686Z,99.00
2023-02-11T01:07:34.519Z,99.50
2023-02-11T01:10:01.991Z,99.60
2023-02-11T01:12:28.792Z,99.90
2023-02-11T01:14:55.480Z,99.90
2023-02-11T01:17:22.340Z,99.90
2023-02-11T01:19:49.154Z,99.90
2023-02-11T01:22:15.884Z,99.90
2023-02-11T01:24:42.628Z,99.90
2023-02-11T01:27:09.314Z,99.90
2023-02-11T01:29:36.124Z,99.90
2023-02-11T01:32:02.864Z,99.90
2023-02-11T01:34:29.580Z,99.90
2023-02-11T01:36:59.789Z,99.90
2023-02-11T01:39:27.747Z,99.90
2023-02-11T01:41:54.555Z,99.90
2023-02-11T01:44:23.854Z,99.90
2023-02-11T01:46:50.682Z,99.90
2023-02-11T01:49:28.718Z,99.90
2023-02-11T01:52:01.391Z,99.90
2023-02-11T01:54:54.165Z,99.90
2023-02-11T01:57:25.869Z,99.90
2023-02-11T01:59:55.569Z,99.90
2023-02-11T02:02:27.604Z,99.90
2023-02-11T02:05:02.779Z,99.90
2023-02-11T02:07:37.383Z,99.90
2023-02-11T02:10:11.664Z,99.90
2023-02-11T02:12:38.504Z,99.90
2023-02-11T02:15:35.524Z,99.90
2023-02-11T02:18:24.076Z,99.90
2023-02-11T02:21:25.486Z,99.90
2023-02-11T02:24:08.580Z,99.90
2023-02-11T02:27:13.041Z,99.90
2023-02-11T02:29:57.700Z,99.90
2023-02-11T02:32:58.846Z,99.90
2023-02-11T02:35:34.804Z,99.90
2023-02-11T02:38:29.054Z,99.90
2023-02-11T02:41:08.137Z,99.90
2023-02-11T02:43:37.405Z,99.90
2023-02-11T02:46:11.675Z,99.90
2023-02-11T02:48:38.628Z,99.90
2023-02-11T02:51:17.683Z,99.90
2023-02-11T02:54:18.130Z,99.90
2023-02-11T02:57:07.285Z,99.90
2023-02-11T02:59:37.022Z,99.90
2023-02-11T03:02:13.416Z,99.90
2023-02-11T03:05:28.089Z,99.90
2023-02-11T03:07:54.937Z,99.90
2023-02-11T03:10:30.441Z,99.90
2023-02-11T03:12:58.298Z,99.90
2023-02-11T03:15:28.989Z,99.90
2023-02-11T03:17:59.724Z,99.90
2023-02-11T03:20:30.261Z,99.90
2023-02-11T03:23:18.874Z,99.90
2023-02-11T03:25:55.864Z,99.90
2023-02-11T03:28:41.292Z,99.90
2023-02-11T03:31:15.003Z,99.90
2023-02-11T03:34:02.370Z,99.90
2023-02-11T03:36:54.632Z,99.90
2023-02-11T03:39:27.401Z,99.90
2023-02-11T03:41:58.574Z,99.90
2023-02-11T03:44:31.287Z,99.90
2023-02-11T03:47:00.699Z,99.90
2023-02-11T03:49:28.530Z,99.90
2023-02-11T03:51:56.963Z,99.90
2023-02-11T03:54:29.420Z,99.90
2023-02-11T03:56:59.772Z,99.90
2023-02-11T03:59:26.825Z,99.90
2023-02-11T04:01:53.704Z,99.90
2023-02-11T04:04:20.590Z,99.90
2023-02-11T04:06:47.308Z,99.90
2023-02-11T04:09:14.952Z,99.90
2023-02-11T04:11:41.810Z,99.90
2023-02-11T04:14:08.583Z,99.90
2023-02-11T04:16:35.425Z,99.90
2023-02-11T04:19:02.162Z,99.90
2023-02-11T04:21:29.268Z,99.90
2023-02-11T04:23:55.988Z,99.90
2023-02-11T04:26:22.746Z,99.90
2023-02-11T04:28:49.427Z,99.90
2023-02-11T04:31:16.321Z,99.90
2023-02-11T04:33:43.105Z,99.90
2023-02-11T04:36:09.944Z,99.90
2023-02-11T04:38:36.670Z,99.90
2023-02-11T04:41:03.664Z,99.90
2023-02-11T04:43:30.361Z,99.90
2023-02-11T04:45:58.771Z,99.90
2023-02-11T04:48:26.058Z,99.90
2023-02-11T04:50:52.892Z,99.90
2023-02-11T04:53:19.916Z,99.90
2023-02-11T04:55:50.790Z,99.90
2023-02-11T04:58:18.837Z,99.90
2023-02-11T05:00:46.257Z,99.90
2023-02-11T05:03:13.922Z,99.90
2023-02-11T05:05:41.762Z,99.90
2023-02-11T05:08:09.918Z,99.90
2023-02-11T05:10:37.629Z,99.90
2023-02-11T05:13:04.434Z,99.90
2023-02-11T05:15:31.661Z,99.90
2023-02-11T05:17:58.647Z,99.90
2023-02-11T05:20:25.464Z,99.90
2023-02-11T05:22:52.650Z,99.90
2023-02-11T05:25:20.456Z,99.90
2023-02-11T05:27:47.383Z,99.90
2023-02-11T05:30:14.435Z,99.90
2023-02-11T05:32:42.247Z,99.90
2023-02-11T05:35:09.494Z,99.90
2023-02-11T05:37:36.263Z,99.90
2023-02-11T05:40:03.458Z,99.90
2023-02-11T05:42:30.232Z,99.90
2023-02-11T05:44:56.884Z,99.90
2023-02-11T05:47:23.670Z,99.90
2023-02-11T05:49:51.332Z,99.90
2023-02-11T05:52:18.091Z,99.90
2023-02-11T05:54:44.796Z,99.90
2023-02-11T05:57:11.517Z,99.90
2023-02-11T05:59:38.958Z,99.90
2023-02-11T06:02:07.947Z,99.90
2023-02-11T06:04:35.603Z,99.90
2023-02-11T06:07:03.055Z,99.90
2023-02-11T06:09:30.037Z,99.90
2023-02-11T06:11:56.827Z,99.90
2023-02-11T06:14:23.878Z,99.90
2023-02-11T06:16:50.610Z,99.90
2023-02-11T06:19:17.368Z,99.90
2023-02-11T06:21:44.681Z,99.90
2023-02-11T06:24:12.350Z,99.90
2023-02-11T06:26:39.149Z,99.90
2023-02-11T06:29:05.971Z,99.90
2023-02-11T06:31:32.767Z,99.90
2023-02-11T06:33:59.590Z,99.90
2023-02-11T06:36:26.637Z,99.90
2023-02-11T06:38:53.458Z,99.90
2023-02-11T06:41:20.507Z,99.90
2023-02-11T06:43:47.501Z,99.90
2023-02-11T06:46:14.989Z,99.90
2023-02-11T06:48:44.648Z,99.90
2023-02-11T06:51:13.388Z,99.90
2023-02-11T06:53:42.838Z,99.90
2023-02-11T06:56:15.480Z,99.90
2023-02-11T06:58:42.811Z,99.90
2023-02-11T07:01:12.218Z,99.90
2023-02-11T07:03:40.902Z,99.90
2023-02-11T07:06:08.844Z,99.90
2023-02-11T07:08:37.161Z,99.90
2023-02-11T07:11:12.404Z,99.90
2023-02-11T07:13:39.403Z,99.90
2023-02-11T07:16:07.598Z,99.90
2023-02-11T07:18:34.580Z,99.90
2023-02-11T07:21:07.884Z,99.90
2023-02-11T07:23:36.267Z,99.90
2023-02-11T07:26:05.072Z,99.90
2023-02-11T07:28:33.771Z,99.90
2023-02-11T07:31:05.786Z,99.90
2023-02-11T07:33:32.530Z,99.90
2023-02-11T07:36:01.074Z,99.90
2023-02-11T07:38:28.515Z,99.90
2023-02-11T07:40:55.235Z,99.90
2023-02-11T07:43:21.995Z,99.90
2023-02-11T07:45:48.914Z,99.90
2023-02-11T07:48:15.725Z,99.90
2023-02-11T07:50:42.472Z,99.90
2023-02-11T07:53:09.136Z,99.90
2023-02-11T07:55:35.877Z,99.90
2023-02-11T07:58:02.598Z,99.90
2023-02-11T08:00:29.349Z,99.90
2023-02-11T08:02:57.876Z,99.90
2023-02-11T08:05:24.620Z,99.90
2023-02-11T08:07:52.708Z,99.90
2023-02-11T08:10:19.763Z,99.90
2023-02-11T08:12:46.476Z,99.90
2023-02-11T08:15:13.615Z,99.90
2023-02-11T08:17:40.345Z,99.90
2023-02-11T08:20:07.442Z,99.90
2023-02-11T08:22:35.344Z,99.90
2023-02-11T08:25:02.137Z,99.90
2023-02-11T08:27:28.983Z,99.90
2023-02-11T08:29:57.065Z,99.90
2023-02-11T08:32:25.588Z,99.90
2023-02-11T08:34:52.724Z,99.90
2023-02-11T08:37:20.198Z,99.90
2023-02-11T08:39:47.402Z,99.90
2023-02-11T08:42:15.650Z,99.90
2023-02-11T08:44:43.078Z,99.90
2023-02-11T08:47:09.898Z,99.90
2023-02-11T08:49:36.690Z,99.90
2023-02-11T08:52:04.259Z,99.90
2023-02-11T08:54:31.516Z,99.90
2023-02-11T08:56:58.209Z,99.90
2023-02-11T08:59:25.240Z,99.90
2023-02-11T09:01:52.083Z,99.90
2023-02-11T09:04:19.461Z,99.90
2023-02-11T09:06:46.324Z,99.90
2023-02-11T09:09:15.055Z,99.90
2023-02-11T09:11:44.170Z,99.90
2023-02-11T09:14:22.141Z,99.90
2023-02-11T09:16:50.057Z,99.90
2023-02-11T09:19:17.743Z,99.90
2023-02-11T09:21:44.662Z,99.90
2023-02-11T09:24:11.679Z,99.90
2023-02-11T09:26:42.319Z,99.90
2023-02-11T09:29:09.177Z,99.90
2023-02-11T09:31:36.060Z,99.90
2023-02-11T09:34:05.463Z,99.90
2023-02-11T09:36:37.216Z,99.90
2023-02-11T09:39:06.063Z,99.90
2023-02-11T09:41:41.001Z,99.90
2023-02-11T09:44:16.568Z,99.90
2023-02-11T09:46:53.756Z,99.90
2023-02-11T09:49:28.008Z,99.90
2023-02-11T09:52:20.445Z,99.90
2023-02-11T09:54:57.171Z,99.90
2023-02-11T09:57:31.628Z,99.90
2023-02-11T09:59:58.407Z,99.90
2023-02-11T10:02:38.065Z,99.90
2023-02-11T10:05:21.693Z,99.90
2023-02-11T10:08:26.411Z,99.90
2023-02-11T10:11:06.618Z,99.90
2023-02-11T10:13:50.879Z,99.90
2023-02-11T10:16:30.642Z,99.90
2023-02-11T10:19:21.324Z,99.90
2023-02-11T10:22:06.044Z,99.90
2023-02-11T10:24:34.579Z,99.90
2023-02-11T10:27:06.409Z,99.90
2023-02-11T10:29:40.834Z,99.90
2023-02-11T10:32:22.896Z,99.90
2023-02-11T10:34:50.109Z,99.90
2023-02-11T10:37:16.876Z,99.90
2023-02-11T10:39:43.772Z,99.90
2023-02-11T10:42:13.813Z,99.90
2023-02-11T10:44:49.402Z,99.90
2023-02-11T10:47:21.868Z,99.90
2023-02-11T10:49:49.096Z,99.90
2023-02-11T10:52:20.771Z,99.90
2023-02-11T10:55:05.349Z,99.90
2023-02-11T10:57:36.411Z,99.90
2023-02-11T11:00:08.961Z,99.90
2023-02-11T11:02:38.827Z,99.90
2023-02-11T11:05:30.436Z,99.90
2023-02-11T11:08:08.837Z,99.90
2023-02-11T11:10:46.985Z,99.90
2023-02-11T11:13:27.220Z,99.90
2023-02-11T11:16:18.293Z,99.90
2023-02-11T11:18:49.719Z,99.90
2023-02-11T11:21:30.231Z,99.90
2023-02-11T11:23:59.905Z,99.90
2023-02-11T11:26:42.497Z,99.90
2023-02-11T11:30:08.445Z,99.90
2023-02-11T11:32:37.213Z,99.90
2023-02-11T11:35:20.362Z,99.90
2023-02-11T11:37:53.934Z,99.90
2023-02-11T11:40:32.257Z,99.90
2023-02-11T11:43:12.786Z,99.90
2023-02-11T11:45:39.985Z,99.90
2023-02-11T11:48:42.732Z,99.90
2023-02-11T11:51:12.065Z,99.90
2023-02-11T11:54:02.092Z,99.90
2023-02-11T11:56:39.951Z,99.90
2023-02-11T11:59:16.664Z,99.90
2023-02-11T12:02:14.099Z,99.90
2023-02-11T12:04:52.682Z,99.90
2023-02-11T12:07:57.613Z,99.90
2023-02-11T12:10:42.293Z,99.90
2023-02-11T12:13:44.390Z,99.90
2023-02-11T12:16:23.137Z,99.90
2023-02-11T12:19:10.843Z,99.90
2023-02-11T12:22:09.551Z,99.90
2023-02-11T12:24:54.756Z,99.90
2023-02-11T12:27:50.418Z,99.90
2023-02-11T12:30:22.945Z,99.90
2023-02-11T12:33:14.902Z,99.90
2023-02-11T12:36:01.531Z,99.90
2023-02-11T12:38:43.065Z,99.90
2023-02-11T12:41:55.494Z,99.90
2023-02-11T12:44:37.192Z,99.90
2023-02-11T12:47:19.223Z,99.90
2023-02-11T12:50:11.166Z,99.90
2023-02-11T12:52:59.067Z,99.90
2023-02-11T12:55:28.336Z,99.90
2023-02-11T12:57:57.854Z,99.90
2023-02-11T13:00:34.856Z,99.90
2023-02-11T13:03:10.982Z,99.90
2023-02-11T13:05:40.305Z,99.90
2023-02-11T13:08:25.155Z,99.90
2023-02-11T13:11:07.852Z,99.90
2023-02-11T13:13:49.664Z,99.90
2023-02-11T13:16:40.676Z,99.90
2023-02-11T13:19:07.955Z,99.90
2023-02-11T13:22:00.220Z,99.90
2023-02-11T13:24:52.935Z,99.90
2023-02-11T13:27:44.002Z,99.90
2023-02-11T13:30:32.994Z,99.90
2023-02-11T13:33:03.214Z,99.90
2023-02-11T13:35:38.489Z,99.90
2023-02-11T13:38:16.529Z,99.90
2023-02-11T13:40:44.149Z,99.90
2023-02-11T13:43:25.527Z,99.90
2023-02-11T13:45:57.759Z,99.90
2023-02-11T13:48:33.276Z,99.90
2023-02-11T13:51:03.452Z,99.90
2023-02-11T13:53:43.649Z,99.90
2023-02-11T13:56:23.145Z,99.90
2023-02-11T13:58:51.671Z,99.90
2023-02-11T14:01:42.030Z,99.90
2023-02-11T14:04:49.115Z,99.90
2023-02-11T14:08:09.580Z,99.90
2023-02-11T14:10:41.937Z,99.90
2023-02-11T14:13:31.126Z,99.90
2023-02-11T14:16:10.215Z,99.90
2023-02-11T14:18:59.923Z,99.90
2023-02-11T14:21:27.422Z,99.90
2023-02-11T14:24:01.269Z,99.90
2023-02-11T14:26:27.949Z,99.90
2023-02-11T14:29:06.914Z,99.90
2023-02-11T14:31:49.222Z,99.90
2023-02-11T14:34:33.993Z,99.90
2023-02-11T14:37:22.006Z,99.90
2023-02-11T14:40:12.939Z,99.90
2023-02-11T14:42:39.861Z,99.90
2023-02-11T14:45:11.793Z,99.90
2023-02-11T14:48:31.345Z,99.90
2023-02-11T14:51:12.942Z,99.90
2023-02-11T14:53:44.763Z,99.90
2023-02-11T14:56:38.229Z,99.90
2023-02-11T14:59:20.595Z,99.90
2023-02-11T15:01:54.794Z,99.90
2023-02-11T15:04:34.468Z,99.90
2023-02-11T15:07:08.244Z,99.90
2023-02-11T15:09:42.655Z,99.90
2023-02-11T15:12:28.206Z,99.90
2023-02-11T15:14:58.147Z,99.90
2023-02-11T15:17:31.737Z,99.90
2023-02-11T15:20:01.225Z,99.90
2023-02-11T15:22:36.364Z,99.90
2023-02-11T15:25:16.738Z,99.90
2023-02-11T15:27:48.434Z,99.90
2023-02-11T15:30:27.012Z,99.90
2023-02-11T15:33:00.026Z,99.90
2023-02-11T15:35:32.698Z,99.90
2023-02-11T15:38:00.050Z,99.90
2023-02-11T15:40:33.107Z,99.90
2023-02-11T15:43:08.207Z,99.90
2023-02-11T15:45:44.510Z,99.90
2023-02-11T15:48:22.408Z,99.90
2023-02-11T15:50:53.687Z,99.90
2023-02-11T15:53:31.721Z,99.90
2023-02-11T15:56:09.391Z,99.90
2023-02-11T15:58:38.677Z,99.90
2023-02-11T16:01:06.730Z,99.90
2023-02-11T16:03:33.812Z,99.90
2023-02-11T16:06:21.767Z,99.90
2023-02-11T16:09:25.085Z,99.90
2023-02-11T16:11:51.903Z,99.90
2023-02-11T16:14:37.043Z,99.90
2023-02-11T16:17:17.852Z,99.90
2023-02-11T16:19:47.830Z,99.90
2023-02-11T16:22:22.955Z,99.90
2023-02-11T16:24:53.077Z,99.90
2023-02-11T16:27:28.522Z,99.90
2023-02-11T16:29:56.847Z,99.90
2023-02-11T16:32:27.247Z,99.90
2023-02-11T16:34:57.937Z,99.90
2023-02-11T16:37:25.335Z,99.90
2023-02-11T16:40:00.754Z,99.90
2023-02-11T16:42:27.588Z,99.90
2023-02-11T16:44:54.577Z,99.90
2023-02-11T16:47:27.859Z,99.90
2023-02-11T16:49:55.703Z,99.90
2023-02-11T16:52:23.309Z,99.90
2023-02-11T16:54:50.405Z,99.90
2023-02-11T16:57:22.896Z,99.90
2023-02-11T16:59:50.988Z,99.90
2023-02-11T17:02:30.480Z,99.90
2023-02-11T17:05:01.192Z,99.90
2023-02-11T17:07:28.755Z,99.90
2023-02-11T17:09:56.432Z,99.90
2023-02-11T17:12:26.690Z,99.90
2023-02-11T17:14:53.988Z,99.90
2023-02-11T17:17:23.742Z,99.90
2023-02-11T17:19:51.348Z,99.90
2023-02-11T17:22:18.985Z,99.90
2023-02-11T17:24:46.200Z,99.90
2023-02-11T17:27:13.213Z,99.90
2023-02-11T17:29:43.077Z,99.90
2023-02-11T17:32:09.850Z,99.90
2023-02-11T17:34:36.696Z,99.90
2023-02-11T17:37:16.216Z,99.90
2023-02-11T17:39:43.840Z,99.90
2023-02-11T17:42:11.733Z,99.90
2023-02-11T17:44:38.575Z,99.90
2023-02-11T17:47:05.480Z,99.90
2023-02-11T17:49:32.694Z,99.90
2023-02-11T17:51:59.442Z,99.90
2023-02-11T17:54:26.778Z,99.90
2023-02-11T17:56:57.782Z,99.90
2023-02-11T17:59:26.027Z,99.90
2023-02-11T18:01:52.789Z,99.90
2023-02-11T18:04:20.091Z,99.90
2023-02-11T18:06:47.341Z,99.90
2023-02-11T18:09:14.189Z,99.90
2023-02-11T18:11:41.371Z,99.90
2023-02-11T18:14:08.548Z,99.90
2023-02-11T18:16:36.609Z,99.90
2023-02-11T18:19:04.296Z,99.90
2023-02-11T18:21:30.993Z,99.90
2023-02-11T18:24:00.023Z,99.90
2023-02-11T18:26:28.293Z,99.90
2023-02-11T18:28:58.173Z,99.90
2023-02-11T18:31:26.579Z,99.90
2023-02-11T18:33:53.503Z,99.90
2023-02-11T18:36:21.892Z,99.90
2023-02-11T18:38:48.850Z,99.90
2023-02-11T18:41:15.816Z,99.90
2023-02-11T18:43:43.159Z,99.90
2023-02-11T18:46:12.858Z,99.90
2023-02-11T18:48:40.213Z,99.90
2023-02-11T18:51:12.471Z,99.90
2023-02-11T18:53:39.507Z,99.90
2023-02-11T18:56:11.168Z,99.90
2023-02-11T18:58:38.756Z,99.90
2023-02-11T19:01:24.412Z,99.90
2023-02-11T19:03:51.381Z,99.90
2023-02-11T19:06:26.991Z,99.90
2023-02-11T19:08:57.560Z,99.90
2023-02-11T19:11:45.247Z,99.90
2023-02-11T19:14:12.508Z,99.90
2023-02-11T19:16:41.511Z,99.90
2023-02-11T19:19:08.686Z,99.90
2023-02-11T19:21:35.914Z,99.90
2023-02-11T19:24:07.690Z,99.90
2023-02-11T19:26:34.762Z,99.90
2023-02-11T19:29:01.984Z,99.90
2023-02-11T19:31:32.112Z,99.90
2023-02-11T19:33:59.734Z,99.90
2023-02-11T19:36:26.767Z,99.90
2023-02-11T19:38:53.938Z,99.90
2023-02-11T19:41:23.020Z,99.90
2023-02-11T19:43:52.871Z,99.90
2023-02-11T19:46:21.239Z,99.90
2023-02-11T19:48:49.253Z,99.90
2023-02-11T19:51:16.255Z,99.90
2023-02-11T19:53:44.581Z,99.90
2023-02-11T19:56:12.783Z,99.90
2023-02-11T19:58:40.917Z,99.90
2023-02-11T20:01:09.011Z,99.90
2023-02-11T20:03:36.139Z,99.90
2023-02-11T20:06:07.603Z,99.90
2023-02-11T20:08:34.608Z,99.90
2023-02-11T20:11:15.200Z,99.90
2023-02-11T20:13:42.533Z,99.90
2023-02-11T20:16:20.029Z,99.90
2023-02-11T20:18:49.364Z,99.90
2023-02-11T20:21:29.039Z,99.90
2023-02-11T20:23:56.185Z,99.90
2023-02-11T20:26:28.711Z,99.90
2023-02-11T20:28:56.974Z,99.90
2023-02-11T20:31:24.406Z,99.90
2023-02-11T20:33:51.738Z,99.90
2023-02-11T20:36:21.346Z,99.90
2023-02-11T20:38:49.314Z,99.90
2023-02-11T20:41:19.745Z,99.90
2023-02-11T20:43:51.984Z,99.90
2023-02-11T20:46:22.123Z,99.90
2023-02-11T20:48:49.210Z,99.90
2023-02-11T20:51:21.074Z,99.90
2023-02-11T20:53:50.361Z,99.90
2023-02-11T20:56:24.143Z,99.90
2023-02-11T20:58:51.725Z,99.90
2023-02-11T21:01:24.096Z,99.90
2023-02-11T21:03:50.866Z,99.90
2023-02-11T21:06:18.374Z,99.90
2023-02-11T21:08:45.437Z,99.90
2023-02-11T21:11:12.495Z,99.90
2023-02-11T21:13:41.235Z,99.90
2023-02-11T21:16:11.176Z,99.90
2023-02-11T21:18:38.122Z,99.90
2023-02-11T21:21:06.999Z,99.90
2023-02-11T21:23:33.846Z,99.90
2023-02-11T21:26:00.594Z,99.90
2023-02-11T21:28:27.727Z,99.90
2023-02-11T21:30:56.643Z,99.90
2023-02-11T21:33:25.510Z,99.90
2023-02-11T21:36:00.295Z,99.90
2023-02-11T21:38:27.374Z,99.90
2023-02-11T21:40:54.528Z,99.90
2023-02-11T21:43:21.713Z,99.90
2023-02-11T21:45:51.131Z,99.90
2023-02-11T21:48:18.699Z,99.90
2023-02-11T21:50:47.148Z,99.90
2023-02-11T21:53:14.395Z,99.90
2023-02-11T21:55:41.461Z,99.90
2023-02-11T21:58:08.329Z,99.90
2023-02-11T22:00:35.468Z,99.90
2023-02-11T22:03:02.504Z,99.90
2023-02-11T22:05:29.220Z,99.90
2023-02-11T22:07:56.423Z,99.90
2023-02-11T22:10:23.169Z,99.90
2023-02-11T22:12:49.901Z,99.90
2023-02-11T22:15:16.697Z,99.90
2023-02-11T22:17:43.497Z,99.90
2023-02-11T22:20:10.725Z,99.90
2023-02-11T22:22:37.443Z,99.90
2023-02-11T22:25:04.282Z,99.90
2023-02-11T22:27:31.093Z,99.90
2023-02-11T22:29:57.815Z,99.90
2023-02-11T22:32:24.563Z,99.90
2023-02-11T22:34:53.275Z,99.90
2023-02-11T22:37:20.439Z,99.90
2023-02-11T22:39:47.212Z,99.90
2023-02-11T22:42:13.996Z,99.90
2023-02-11T22:44:40.708Z,99.90
2023-02-11T22:47:07.442Z,99.90
2023-02-11T22:49:34.396Z,99.90
2023-02-11T22:52:01.276Z,99.90
2023-02-11T22:54:28.235Z,99.90
2023-02-11T22:56:55.086Z,99.90
2023-02-11T22:59:21.871Z,99.90
2023-02-11T23:01:49.026Z,99.90
2023-02-11T23:04:19.203Z,99.90
2023-02-11T23:06:47.662Z,99.90
2023-02-11T23:09:14.733Z,99.90
2023-02-11T23:11:41.653Z,99.90
2023-02-11T23:14:10.084Z,99.90
2023-02-11T23:16:36.850Z,99.90
2023-02-11T23:19:07.471Z,99.90
2023-02-11T23:21:37.426Z,99.90
2023-02-11T23:24:12.002Z,99.90
2023-02-11T23:26:43.075Z,99.90
2023-02-11T23:29:10.484Z,99.90
2023-02-11T23:31:40.300Z,99.90
2023-02-11T23:34:08.789Z,99.90
2023-02-11T23:36:36.305Z,99.90
2023-02-11T23:39:04.027Z,99.90
2023-02-11T23:41:30.807Z,99.90
2023-02-11T23:43:58.386Z,99.90
2023-02-11T23:46:28.504Z,99.90
2023-02-11T23:48:55.327Z,99.90
2023-02-11T23:51:22.455Z,99.90
2023-02-11T23:53:49.894Z,99.90
2023-02-11T23:56:22.297Z,99.90
2023-02-11T23:58:51.483Z,99.90
